EHPG

P11-b Sea

P11-b Sea, The Netherlands
METAR EHPG 242355Z AUTO 21033KT 8000 FEW005 10/10 Q1004 W///H///
Observed Flight Rules
Apr-24 @ 23:55 UTC (40 minutes ago) Marginal Visual Flight Rules
Wind Visibility Clouds
210° at 33 knots 7,998 meters
  • Few at 500' AGL
Temperatures Readings
Current 10°C / 50°F
Dewpoint 10°C / 50°F
Humidity 100%
Altimeter 29.65" Hg
Pressure 1004 hPa
Elevation 50
METAR EHPG 242355Z AUTO 21033KT 8000 FEW005 10/10 Q1004 W///H///
Observed Flight Rules
Apr-24 @ 23:55 UTC
(40 minutes ago)
MVFR
Wind Visibility
210° at 33 knots 7,998 meters
Clouds
  • Few at 500' AGL
Temperature Dewpoint
10°C / 50°F 10°C / 50°F
Humidity Altimeter Pressure
100% 29.65" Hg 1004 hPa